Portada
METAR-TAF:

METAR-TAF

Aeropuertos :

Aeropuerto Internacional de Maiquetía Simón Bolívar

Caracas, Venezuela

latitud: 10-36N, longitud: 066-59W, altitud: 43 m

Observación

El informe se hizo hace 1 hora y 1 minutos, a las 15:00 UTC
Viento 3 kt del norte
Temperatura 29°C
Humedad 66%
Presión 1014 hPa
Visibilidad 10 km o más
Nubes dispersas a una altura de 1600 ft

METAR: SVMI 201500Z 36003KT 9999 SCT016 29/22 Q1014

Hora: 12:01 (16:01 UTC)

Pronóstico

El informe se hizo hace 6 horas y 1 minutos, a las 10:00 UTC
Pronóstico válido del 20 a las 12 UTC al 21 a las 12 UTC
Viento 7 kt del este
Visibilidad 10 km o más
Nubes dispersas a una altura de 1600 ft
Evolucionando progresivamente
del 20 a las 14 UTC al 20 a las 18 UTC
Viento 10 kt del este

TAF: SVMI 201000Z 2012/2112 09007KT 9999 SCT016 TX31/18Z TN24/09Z BECMG 2014/2018 09010KT

Observaciones y pronósticos meteorológicos de más de 4000 aeropuertos (mensajes METAR y TAF).

Los puntos amarillos y rojos representan las estaciones disponibles.

Ponga el ratón en el punto deseado para ver el nombre de la estación.

Haga clic para ver las observaciones y los pronósticos meteorológicos.

Para cambiar el mapa : haga clic en los botones verdes con una cruz de color negro para hacer un zoom, en el botón verde con un guión para alejar o en las flechas verdes para mapas adyacentes.


METAR-TAF: